Time;durP1;ratioP1;P1;durP2;ratioP2;P2;SDS_P1;SDS_P2;PMS_P1;PMS_P2;Temp;Humidity;BMP_temperature;BMP_pressure;BME280_temperature;BME280_humidity;BME280_pressure;Samples;Min_cycle;Max_cycle;Signal;HPM_P1;HPM_P2
2023/04/03 00:00:55;;;;;;;4.30;4.00;;;;;;;1.13;100.00;99149.19;131659;1281;22643;-79
2023/04/03 00:03:58;;;;;;;6.30;4.10;;;;;;;1.14;100.00;99147.61;131711;1283;24207;-78
2023/04/03 00:07:01;;;;;;;5.00;3.70;;;;;;;1.13;100.00;99156.22;131700;1287;25493;-81
2023/04/03 00:10:04;;;;;;;3.70;3.20;;;;;;;1.13;100.00;99157.24;131645;1287;22652;-78
2023/04/03 00:13:07;;;;;;;4.70;3.90;;;;;;;1.12;100.00;99155.66;131721;1283;24264;-79
2023/04/03 00:16:10;;;;;;;6.10;3.70;;;;;;;1.11;100.00;99157.97;131701;1287;24358;-79
2023/04/03 00:19:13;;;;;;;7.00;3.40;;;;;;;1.11;100.00;99159.02;131730;1281;24298;-78
2023/04/03 00:22:15;;;;;;;3.50;3.20;;;;;;;1.13;100.00;99160.41;131680;1287;24388;-80
2023/04/03 00:25:18;;;;;;;4.60;4.00;;;;;;;1.13;100.00;99170.17;131681;1287;25427;-79
2023/04/03 00:28:22;;;;;;;5.70;3.80;;;;;;;1.12;100.00;99162.00;131815;1287;23251;-80
2023/04/03 00:31:25;;;;;;;5.60;3.60;;;;;;;1.13;100.00;99162.94;131743;1285;22592;-79
2023/04/03 00:34:28;;;;;;;5.90;3.80;;;;;;;1.15;100.00;99161.12;131687;1288;25362;-79
2023/04/03 00:37:31;;;;;;;3.10;2.50;;;;;;;1.16;100.00;99162.59;131745;1288;23257;-79
2023/04/03 00:40:34;;;;;;;4.00;2.90;;;;;;;1.12;100.00;99170.28;131740;1287;25235;-80
2023/04/03 00:43:36;;;;;;;3.80;3.30;;;;;;;1.06;100.00;99173.96;131685;1288;23916;-79
2023/04/03 00:46:39;;;;;;;4.30;3.50;;;;;;;1.00;100.00;99167.85;131736;1287;25476;-79
2023/04/03 00:49:42;;;;;;;3.10;2.90;;;;;;;0.96;100.00;99172.10;131784;1287;22801;-78
2023/04/03 00:52:46;;;;;;;4.10;3.30;;;;;;;0.90;100.00;99175.05;131750;1288;23961;-79
2023/04/03 00:55:49;;;;;;;6.00;3.80;;;;;;;0.82;100.00;99171.14;131688;1287;22560;-80
2023/04/03 00:58:52;;;;;;;5.30;3.90;;;;;;;0.77;100.00;99173.77;131650;1288;25344;-80
2023/04/03 01:01:55;;;;;;;6.10;3.90;;;;;;;0.72;100.00;99176.69;131682;1287;23008;-78
2023/04/03 01:04:58;;;;;;;3.90;3.60;;;;;;;0.68;100.00;99178.35;131640;1288;23311;-80
2023/04/03 01:08:01;;;;;;;3.60;3.30;;;;;;;0.66;100.00;99175.60;131690;1287;23882;-80
2023/04/03 01:11:03;;;;;;;3.60;2.90;;;;;;;0.63;100.00;99182.27;131720;1288;25663;-79
2023/04/03 01:14:06;;;;;;;5.50;3.80;;;;;;;0.58;100.00;99178.39;131627;1288;22660;-77
2023/04/03 01:17:09;;;;;;;4.80;4.40;;;;;;;0.52;100.00;99179.08;131731;1281;22536;-78
2023/04/03 01:20:12;;;;;;;4.70;3.80;;;;;;;0.49;100.00;99180.02;131638;1288;24233;-77
2023/04/03 01:23:15;;;;;;;3.00;2.80;;;;;;;0.48;100.00;99179.06;131608;1288;22635;-80
2023/04/03 01:26:18;;;;;;;4.90;3.40;;;;;;;0.44;100.00;99185.34;132219;1288;22532;-79
2023/04/03 01:29:21;;;;;;;3.00;2.80;;;;;;;0.36;100.00;99191.20;131782;1283;25290;-79
2023/04/03 01:32:24;;;;;;;4.60;3.60;;;;;;;0.28;100.00;99197.08;131995;1280;22642;-79
2023/04/03 01:35:27;;;;;;;7.10;3.50;;;;;;;0.21;100.00;99196.46;131799;1281;24262;-77
2023/04/03 01:38:30;;;;;;;3.70;3.40;;;;;;;0.17;100.00;99195.72;131655;1288;24208;-79
2023/04/03 01:41:33;;;;;;;7.30;4.10;;;;;;;0.13;100.00;99200.11;131755;1288;23880;-78
2023/04/03 01:44:36;;;;;;;7.10;4.40;;;;;;;0.09;100.00;99195.77;131669;1288;22794;-79
2023/04/03 01:47:39;;;;;;;8.30;4.50;;;;;;;0.07;100.00;99199.48;131661;1288;23112;-79
2023/04/03 01:50:41;;;;;;;5.50;3.80;;;;;;;0.05;100.00;99196.85;131664;1288;22543;-80
2023/04/03 01:53:44;;;;;;;5.10;2.70;;;;;;;0.03;100.00;99202.50;131711;1285;25342;-79
2023/04/03 01:56:47;;;;;;;6.00;4.20;;;;;;;-0.02;100.00;99201.78;131637;1288;25179;-78
2023/04/03 01:59:51;;;;;;;5.30;3.70;;;;;;;-0.03;100.00;99203.58;131676;1283;25238;-78
2023/04/03 02:02:53;;;;;;;4.20;2.80;;;;;;;-0.04;100.00;99202.42;131647;1288;22790;-78
2023/04/03 02:05:56;;;;;;;6.50;3.90;;;;;;;-0.06;100.00;99209.59;131684;1288;22757;-79
2023/04/03 02:08:59;;;;;;;3.40;3.10;;;;;;;-0.06;100.00;99211.69;131613;1288;22566;-77
2023/04/03 02:12:02;;;;;;;2.80;2.50;;;;;;;-0.09;100.00;99216.48;131687;1288;24242;-79
2023/04/03 02:15:05;;;;;;;5.70;3.40;;;;;;;-0.16;100.00;99215.41;131619;1288;25332;-78
2023/04/03 02:18:08;;;;;;;3.80;3.10;;;;;;;-0.17;100.00;99213.42;131652;1288;24297;-79
2023/04/03 02:21:11;;;;;;;3.50;3.20;;;;;;;-0.18;100.00;99214.87;131630;1285;22537;-78
2023/04/03 02:24:14;;;;;;;3.90;2.90;;;;;;;-0.17;100.00;99221.52;131672;1288;22635;-79
2023/04/03 02:27:17;;;;;;;3.20;2.80;;;;;;;-0.15;100.00;99222.23;131771;1288;25313;-78
2023/04/03 02:30:19;;;;;;;4.30;3.10;;;;;;;-0.13;100.00;99222.21;131714;1288;22595;-78
2023/04/03 02:33:22;;;;;;;5.70;3.40;;;;;;;-0.12;100.00;99222.70;131524;1287;247110;-77
2023/04/03 02:36:25;;;;;;;5.70;3.80;;;;;;;-0.11;100.00;99221.92;131655;1288;25448;-78
2023/04/03 02:39:28;;;;;;;5.90;3.70;;;;;;;-0.10;100.00;99220.64;131669;1281;22660;-78
2023/04/03 02:42:31;;;;;;;6.10;3.50;;;;;;;-0.11;100.00;99221.23;131640;1288;25381;-77
2023/04/03 02:45:34;;;;;;;6.80;3.40;;;;;;;-0.12;100.00;99225.24;131624;1288;22618;-78
2023/04/03 02:48:37;;;;;;;4.10;3.50;;;;;;;-0.12;100.00;99220.96;131656;1288;25239;-78
2023/04/03 02:51:40;;;;;;;3.70;3.00;;;;;;;-0.10;100.00;99224.79;131708;1283;22544;-80
2023/04/03 02:54:42;;;;;;;3.90;3.20;;;;;;;-0.10;100.00;99226.65;131684;1288;24238;-79
2023/04/03 02:57:45;;;;;;;4.40;3.90;;;;;;;-0.08;100.00;99224.00;131622;1288;23096;-77
2023/04/03 03:00:49;;;;;;;4.00;3.60;;;;;;;-0.07;100.00;99232.13;131421;1288;22771;-77
2023/04/03 03:03:53;;;;;;;5.70;3.90;;;;;;;-0.06;100.00;99232.10;131854;1288;23877;-77
2023/04/03 03:06:56;;;;;;;4.50;3.50;;;;;;;-0.05;100.00;99235.46;131887;1288;22652;-79
2023/04/03 03:09:58;;;;;;;4.00;3.60;;;;;;;-0.06;100.00;99238.76;131959;1287;25280;-78
2023/04/03 03:13:02;;;;;;;4.70;3.90;;;;;;;-0.05;100.00;99236.32;132107;1286;22579;-79
2023/04/03 03:16:05;;;;;;;5.90;4.10;;;;;;;-0.08;100.00;99236.19;132789;1288;22494;-79
2023/04/03 03:19:08;;;;;;;5.20;4.50;;;;;;;-0.08;100.00;99235.16;131833;1287;23054;-79
2023/04/03 03:22:11;;;;;;;6.10;4.50;;;;;;;-0.09;100.00;99236.57;131682;1287;22789;-78
2023/04/03 03:25:14;;;;;;;5.70;3.40;;;;;;;-0.09;100.00;99240.02;132059;1288;22537;-79
2023/04/03 03:28:17;;;;;;;4.90;3.80;;;;;;;-0.11;100.00;99238.05;131687;1288;22590;-78
2023/04/03 03:31:19;;;;;;;3.80;3.30;;;;;;;-0.12;100.00;99245.70;131699;1288;22596;-77
2023/04/03 03:34:22;;;;;;;4.70;3.40;;;;;;;-0.16;100.00;99247.17;131771;1286;22786;-78
2023/04/03 03:37:25;;;;;;;9.20;3.70;;;;;;;-0.22;100.00;99250.61;131632;1287;23932;-79
2023/04/03 03:40:28;;;;;;;6.50;5.50;;;;;;;-0.27;100.00;99249.92;131705;1288;22715;-79
2023/04/03 03:43:31;;;;;;;6.50;5.00;;;;;;;-0.30;100.00;99252.48;131742;1287;24293;-78
2023/04/03 03:46:34;;;;;;;9.80;6.80;;;;;;;-0.33;100.00;99257.15;131734;1285;22572;-78
2023/04/03 03:49:37;;;;;;;13.10;10.20;;;;;;;-0.34;100.00;99257.57;131695;1286;25277;-78
2023/04/03 03:52:40;;;;;;;13.80;9.40;;;;;;;-0.36;100.00;99267.10;131612;1288;23925;-79
2023/04/03 03:55:43;;;;;;;9.60;6.80;;;;;;;-0.36;100.00;99268.36;131664;1287;22643;-79
2023/04/03 03:58:46;;;;;;;14.30;7.50;;;;;;;-0.39;100.00;99264.42;131693;1285;24380;-80
2023/04/03 04:01:49;;;;;;;16.20;10.70;;;;;;;-0.43;100.00;99267.77;131739;1287;22546;-82
2023/04/03 04:04:52;;;;;;;19.80;12.50;;;;;;;-0.46;100.00;99265.70;131910;1287;22669;-81
2023/04/03 04:07:55;;;;;;;13.90;8.60;;;;;;;-0.47;100.00;99270.60;133041;1288;24267;-79
2023/04/03 04:10:58;;;;;;;10.10;5.30;;;;;;;-0.49;100.00;99276.01;133423;1285;24146;-76
2023/04/03 04:14:01;;;;;;;5.40;4.30;;;;;;;-0.51;100.00;99272.59;133985;1287;22592;-76
2023/04/03 04:17:04;;;;;;;9.10;3.70;;;;;;;-0.53;100.00;99277.34;133651;1288;25283;-77
2023/04/03 04:20:07;;;;;;;7.40;3.40;;;;;;;-0.55;100.00;99282.09;133656;1287;22574;-80
2023/04/03 04:23:10;;;;;;;9.30;4.50;;;;;;;-0.58;100.00;99283.23;133057;1283;22571;-81
2023/04/03 04:26:13;;;;;;;5.60;3.50;;;;;;;-0.58;100.00;99287.19;132454;1288;25599;-80
2023/04/03 04:29:15;;;;;;;5.00;2.80;;;;;;;-0.58;100.00;99291.82;133080;1287;22656;-83
2023/04/03 04:32:18;;;;;;;4.00;3.70;;;;;;;-0.60;100.00;99297.23;132301;1288;25346;-81
2023/04/03 04:35:21;;;;;;;3.70;2.80;;;;;;;-0.60;100.00;99294.03;132583;1281;23443;-79
2023/04/03 04:38:24;;;;;;;7.00;3.20;;;;;;;-0.60;100.00;99300.00;132111;1288;24372;-76
2023/04/03 04:41:27;;;;;;;3.90;2.70;;;;;;;-0.60;100.00;99304.30;132227;1288;22534;-81
2023/04/03 04:44:30;;;;;;;5.70;2.90;;;;;;;-0.60;100.00;99302.96;131955;1288;22543;-81
2023/04/03 04:47:33;;;;;;;4.10;3.10;;;;;;;-0.61;100.00;99307.30;131939;1281;22642;-81
2023/04/03 04:50:37;;;;;;;2.60;2.30;;;;;;;-0.62;100.00;99304.29;132119;1288;22648;-77
2023/04/03 04:53:40;;;;;;;5.80;2.80;;;;;;;-0.64;100.00;99307.66;132224;1287;22605;-82
2023/04/03 04:56:43;;;;;;;3.70;2.50;;;;;;;-0.66;100.00;99311.35;132294;1288;24295;-81
2023/04/03 04:59:46;;;;;;;6.40;3.60;;;;;;;-0.66;100.00;99311.74;132049;1281;25407;-81
2023/04/03 05:02:49;;;;;;;8.20;2.90;;;;;;;-0.66;100.00;99315.67;131959;1288;25380;-79
2023/04/03 05:05:52;;;;;;;3.50;2.80;;;;;;;-0.66;100.00;99316.16;131979;1288;22535;-80
2023/04/03 05:08:55;;;;;;;6.20;3.20;;;;;;;-0.66;100.00;99317.70;132033;1288;22670;-81
2023/04/03 05:12:00;;;;;;;9.50;6.50;;;;;;;-0.63;100.00;99320.26;131971;1286;22674;-83
2023/04/03 05:15:05;;;;;;;35.30;17.00;;;;;;;-0.60;100.00;99323.19;131753;1283;22760;-81
2023/04/03 05:18:08;;;;;;;15.10;9.00;;;;;;;-0.54;100.00;99324.86;131769;1288;26721;-82
2023/04/03 05:21:12;;;;;;;9.90;5.10;;;;;;;-0.50;100.00;99326.15;131765;1288;24410;-84
2023/04/03 05:24:14;;;;;;;5.40;4.10;;;;;;;-0.48;100.00;99324.29;132037;1282;24357;-81
2023/04/03 05:27:17;;;;;;;8.20;3.00;;;;;;;-0.47;100.00;99328.19;132342;1283;22541;-83
2023/04/03 05:30:23;;;;;;;3.90;2.70;;;;;;;-0.48;100.00;99323.80;131890;1288;25486;-82
2023/04/03 05:33:26;;;;;;;4.10;3.20;;;;;;;-0.45;100.00;99327.72;131944;1288;22575;-84
2023/04/03 05:36:28;;;;;;;5.10;2.50;;;;;;;-0.42;100.00;99327.94;132161;1287;23133;-82
2023/04/03 05:39:31;;;;;;;5.40;2.60;;;;;;;-0.39;100.00;99330.13;132062;1281;22496;-82
2023/04/03 05:42:34;;;;;;;5.70;3.40;;;;;;;-0.38;100.00;99329.52;132015;1288;25298;-82
2023/04/03 05:45:37;;;;;;;4.90;2.70;;;;;;;-0.34;100.00;99335.66;131938;1282;25478;-83
2023/04/03 05:48:40;;;;;;;3.50;2.40;;;;;;;-0.28;100.00;99332.18;131922;1288;22812;-84
2023/04/03 05:51:44;;;;;;;4.40;2.60;;;;;;;-0.22;100.00;99335.55;131853;1288;22598;-84
2023/04/03 05:54:48;;;;;;;2.20;2.00;;;;;;;-0.18;100.00;99334.13;132047;1288;25279;-84
2023/04/03 05:57:51;;;;;;;9.10;4.80;;;;;;;-0.14;100.00;99335.09;131991;1283;22551;-82
2023/04/03 06:00:53;;;;;;;8.40;5.40;;;;;;;-0.14;100.00;99339.17;131908;1288;24246;-84
2023/04/03 06:03:58;;;;;;;3.90;3.00;;;;;;;-0.12;100.00;99344.00;132015;1288;25413;-81
2023/04/03 06:07:02;;;;;;;7.40;2.70;;;;;;;-0.07;100.00;99353.48;132155;1288;22553;-84
2023/04/03 06:10:05;;;;;;;2.50;2.30;;;;;;;-0.00;100.00;99349.83;132060;1283;22674;-82
2023/04/03 06:13:07;;;;;;;2.70;2.20;;;;;;;0.10;100.00;99352.09;131884;1283;22539;-82
2023/04/03 06:16:10;;;;;;;3.40;2.50;;;;;;;0.21;100.00;99352.06;131999;1288;23793;-82
2023/04/03 06:19:13;;;;;;;2.20;2.10;;;;;;;0.30;100.00;99347.19;132188;1288;24203;-82
2023/04/03 06:22:16;;;;;;;3.80;3.20;;;;;;;0.34;100.00;99349.14;132086;1288;25341;-84
2023/04/03 06:25:19;;;;;;;5.10;3.10;;;;;;;0.37;100.00;99349.98;132158;1281;24199;-83
2023/04/03 06:28:22;;;;;;;3.10;2.40;;;;;;;0.42;100.00;99354.84;131921;1289;25846;-84
2023/04/03 06:31:25;;;;;;;3.10;2.80;;;;;;;0.45;100.00;99355.15;132048;1279;24219;-82
2023/04/03 06:34:28;;;;;;;2.40;2.10;;;;;;;0.48;100.00;99355.79;132036;1289;22540;-83
2023/04/03 06:37:32;;;;;;;4.10;3.20;;;;;;;0.55;100.00;99363.89;132155;1285;26022;-83
2023/04/03 06:40:35;;;;;;;5.70;4.30;;;;;;;0.76;100.00;99372.36;131833;1288;26648;-83
2023/04/03 06:43:38;;;;;;;5.00;3.80;;;;;;;0.97;100.00;99378.48;131749;1288;22642;-83
2023/04/03 06:46:41;;;;;;;6.50;3.60;;;;;;;1.15;100.00;99382.06;131884;1281;24075;-84
2023/04/03 06:49:44;;;;;;;9.90;3.60;;;;;;;1.35;100.00;99384.52;131745;1288;22539;-82
2023/04/03 06:52:47;;;;;;;5.80;3.30;;;;;;;1.41;100.00;99391.65;131780;1288;23881;-83
2023/04/03 06:55:50;;;;;;;6.40;3.40;;;;;;;1.45;100.00;99401.35;131848;1284;24238;-82
2023/04/03 06:58:54;;;;;;;6.20;3.60;;;;;;;1.57;100.00;99396.60;131790;1288;22553;-82
2023/04/03 07:01:58;;;;;;;6.00;3.20;;;;;;;1.61;100.00;99400.13;131957;1281;22558;-82
2023/04/03 07:05:01;;;;;;;4.80;3.00;;;;;;;1.62;100.00;99406.67;131864;1286;22662;-82
2023/04/03 07:08:04;;;;;;;5.80;3.30;;;;;;;1.67;100.00;99407.08;131909;1288;22590;-84
2023/04/03 07:11:07;;;;;;;3.10;2.50;;;;;;;1.70;100.00;99413.39;132038;1286;22643;-82
2023/04/03 07:14:10;;;;;;;13.20;5.80;;;;;;;1.80;100.00;99417.19;131924;1283;23884;-82
2023/04/03 07:17:13;;;;;;;5.10;3.10;;;;;;;1.88;100.00;99426.79;131936;1288;24867;-84
2023/04/03 07:20:16;;;;;;;7.50;3.20;;;;;;;2.01;100.00;99424.55;132281;1288;25504;-81
2023/04/03 07:23:19;;;;;;;4.50;2.60;;;;;;;2.13;100.00;99423.48;133003;1283;22559;-82
2023/04/03 07:26:22;;;;;;;5.90;2.40;;;;;;;2.13;100.00;99431.38;133423;1288;25232;-81
2023/04/03 07:29:24;;;;;;;5.00;2.70;;;;;;;2.09;100.00;99429.95;132950;1288;25361;-82
2023/04/03 07:32:27;;;;;;;15.20;5.50;;;;;;;2.07;100.00;99432.48;132473;1283;22554;-80
2023/04/03 07:35:30;;;;;;;9.60;4.10;;;;;;;2.07;100.00;99436.96;133352;1288;24185;-82
2023/04/03 07:38:33;;;;;;;6.20;3.40;;;;;;;2.05;100.00;99440.56;133436;1288;22553;-81
2023/04/03 07:41:36;;;;;;;2.90;2.50;;;;;;;1.98;100.00;99451.77;133286;1288;24212;-83
2023/04/03 07:44:40;;;;;;;5.00;2.10;;;;;;;1.75;100.00;99457.16;133271;1288;22610;-83
2023/04/03 07:47:43;;;;;;;4.10;2.90;;;;;;;1.69;100.00;99449.98;133118;1285;22540;-82
2023/04/03 07:50:46;;;;;;;7.70;3.60;;;;;;;1.68;100.00;99445.19;132771;1288;25428;-84
2023/04/03 07:53:49;;;;;;;8.20;4.20;;;;;;;1.66;100.00;99448.98;132218;1288;22547;-83
2023/04/03 07:56:52;;;;;;;8.40;3.60;;;;;;;1.67;100.00;99448.89;131997;1287;22538;-83
2023/04/03 07:59:55;;;;;;;5.50;2.70;;;;;;;1.69;100.00;99444.48;131955;1282;22672;-84
2023/04/03 08:02:58;;;;;;;6.80;4.50;;;;;;;1.68;100.00;99450.02;132175;1288;22688;-84
2023/04/03 08:06:01;;;;;;;5.30;3.90;;;;;;;1.67;100.00;99452.18;131826;1288;23219;-82
2023/04/03 08:09:04;;;;;;;8.70;4.40;;;;;;;1.57;100.00;99453.72;132368;1288;25589;-81
2023/04/03 08:12:07;;;;;;;4.40;2.80;;;;;;;1.56;100.00;99448.30;132408;1281;22658;-83
2023/04/03 08:15:10;;;;;;;4.20;2.80;;;;;;;1.63;100.00;99452.77;132020;1281;22603;-83
2023/04/03 08:18:13;;;;;;;4.20;2.60;;;;;;;1.72;100.00;99451.14;131871;1288;22536;-84
2023/04/03 08:21:16;;;;;;;9.90;4.40;;;;;;;1.77;100.00;99455.62;132347;1288;22633;-84
2023/04/03 08:24:18;;;;;;;5.20;3.40;;;;;;;1.84;100.00;99462.52;133031;1280;22553;-83
2023/04/03 08:27:24;;;;;;;4.40;2.20;;;;;;;1.80;100.00;99470.89;132771;1288;22540;-83
2023/04/03 08:30:27;;;;;;;5.50;3.20;;;;;;;1.70;100.00;99466.74;132911;1289;22515;-84
2023/04/03 08:33:31;;;;;;;5.10;4.10;;;;;;;1.77;100.00;99461.81;131970;1283;22565;-83
2023/04/03 08:36:33;;;;;;;7.90;4.10;;;;;;;1.84;100.00;99471.32;131870;1288;22647;-84
2023/04/03 08:39:36;;;;;;;7.30;3.90;;;;;;;1.89;100.00;99467.49;131930;1281;22592;-83
2023/04/03 08:42:39;;;;;;;6.10;3.60;;;;;;;1.97;100.00;99468.52;132114;1288;25497;-83
2023/04/03 08:45:42;;;;;;;4.80;2.80;;;;;;;2.01;100.00;99476.70;132142;1288;24183;-83
2023/04/03 08:48:45;;;;;;;5.50;3.20;;;;;;;2.09;100.00;99478.39;131905;1281;25493;-84
2023/04/03 08:51:48;;;;;;;5.50;2.60;;;;;;;2.15;100.00;99481.91;131825;1281;25429;-82
2023/04/03 08:54:51;;;;;;;6.00;4.50;;;;;;;2.12;100.00;99481.60;131968;1280;24498;-84
2023/04/03 08:57:54;;;;;;;9.80;4.10;;;;;;;2.12;100.00;99489.15;131873;1288;23125;-84
2023/04/03 09:00:56;;;;;;;5.90;3.10;;;;;;;2.03;100.00;99500.48;131859;1288;22541;-83
2023/04/03 09:03:59;;;;;;;6.40;4.20;;;;;;;1.97;100.00;99487.98;131856;1281;25293;-85
2023/04/03 09:07:02;;;;;;;7.70;3.70;;;;;;;1.98;100.00;99490.29;132094;1288;22816;-84
2023/04/03 09:10:05;;;;;;;10.70;3.00;;;;;;;2.04;100.00;99497.16;132269;1288;22551;-84
2023/04/03 09:13:08;;;;;;;2.50;2.20;;;;;;;2.10;100.00;99499.35;132015;1288;24222;-83
2023/04/03 09:16:11;;;;;;;3.20;2.40;;;;;;;2.18;100.00;99502.02;132138;1288;24200;-84
2023/04/03 09:19:14;;;;;;;3.10;2.30;;;;;;;2.24;100.00;99506.59;131956;1288;22549;-84
2023/04/03 09:22:17;;;;;;;3.70;2.70;;;;;;;2.27;100.00;99506.50;132311;1288;22540;-82
2023/04/03 09:25:20;;;;;;;3.90;2.80;;;;;;;2.32;100.00;99504.79;131877;1287;24238;-82
2023/04/03 09:28:23;;;;;;;5.50;3.10;;;;;;;2.48;100.00;99504.36;132600;1281;24337;-82
2023/04/03 09:31:25;;;;;;;6.00;3.40;;;;;;;2.58;100.00;99509.15;131808;1281;22563;-82
2023/04/03 09:34:28;;;;;;;3.00;2.60;;;;;;;2.70;100.00;99510.03;131818;1288;23916;-81
2023/04/03 09:37:31;;;;;;;4.00;2.40;;;;;;;2.77;100.00;99509.83;131752;1281;22533;-83
2023/04/03 09:40:34;;;;;;;4.60;2.60;;;;;;;2.84;100.00;99507.11;131775;1286;22548;-83
2023/04/03 09:43:38;;;;;;;3.70;2.70;;;;;;;2.91;100.00;99512.51;131965;1281;22555;-83
2023/04/03 09:46:41;;;;;;;6.00;4.00;;;;;;;2.95;100.00;99515.27;131911;1288;23015;-82
2023/04/03 09:49:44;;;;;;;4.30;3.00;;;;;;;3.09;100.00;99512.17;131860;1281;22542;-80
2023/04/03 09:52:47;;;;;;;3.50;2.50;;;;;;;3.13;100.00;99527.39;131632;1272;22545;-79
2023/04/03 09:55:50;;;;;;;3.60;2.30;;;;;;;3.04;100.00;99530.48;131893;1283;22537;-80
2023/04/03 09:58:52;;;;;;;5.40;2.60;;;;;;;3.00;100.00;99530.12;131907;1288;25342;-80
2023/04/03 10:01:55;;;;;;;7.80;3.90;;;;;;;3.04;100.00;99524.30;131924;1288;22650;-79
2023/04/03 10:04:58;;;;;;;6.00;3.40;;;;;;;3.10;100.00;99524.86;132482;1287;22632;-82
2023/04/03 10:08:00;;;;;;;6.50;4.10;;;;;;;3.20;100.00;99525.34;132113;1288;25391;-80
2023/04/03 10:11:03;;;;;;;5.50;3.60;;;;;;;3.40;100.00;99524.91;131798;1280;25688;-83
2023/04/03 10:14:06;;;;;;;6.60;3.00;;;;;;;3.52;100.00;99527.95;131696;1287;22618;-81
2023/04/03 10:17:09;;;;;;;7.70;3.20;;;;;;;3.52;100.00;99523.50;131765;1288;22719;-83
2023/04/03 10:20:11;;;;;;;4.50;3.30;;;;;;;3.49;100.00;99519.44;131786;1287;23105;-85
2023/04/03 10:23:14;;;;;;;8.50;5.10;;;;;;;3.45;100.00;99525.73;131876;1288;22536;-83
2023/04/03 10:26:17;;;;;;;6.10;3.50;;;;;;;3.40;100.00;99529.20;131758;1287;22545;-82
2023/04/03 10:29:19;;;;;;;5.90;2.60;;;;;;;3.23;100.00;99530.83;131803;1281;24200;-82
2023/04/03 10:32:22;;;;;;;2.90;2.50;;;;;;;3.04;100.00;99532.92;131748;1285;25284;-83
2023/04/03 10:35:25;;;;;;;4.70;3.20;;;;;;;2.97;100.00;99522.70;131816;1287;22544;-82
2023/04/03 10:38:27;;;;;;;7.50;4.10;;;;;;;3.03;100.00;99520.88;131758;1287;24220;-82
2023/04/03 10:41:30;;;;;;;4.20;2.90;;;;;;;3.17;100.00;99516.75;131817;1287;22554;-82
2023/04/03 10:44:33;;;;;;;4.70;2.70;;;;;;;3.30;100.00;99509.07;131858;1287;25239;-82
2023/04/03 10:47:35;;;;;;;3.10;2.10;;;;;;;3.33;100.00;99512.26;131837;1281;22792;-82
2023/04/03 10:50:38;;;;;;;3.50;2.20;;;;;;;3.42;100.00;99512.30;131892;1287;22532;-82
2023/04/03 10:53:41;;;;;;;3.70;2.40;;;;;;;3.50;100.00;99516.77;132164;1286;22498;-83
2023/04/03 10:56:44;;;;;;;4.40;2.90;;;;;;;3.52;100.00;99520.06;131944;1288;23934;-83
2023/04/03 10:59:47;;;;;;;5.10;3.00;;;;;;;3.47;100.00;99512.85;132141;1287;22657;-82
2023/04/03 11:02:49;;;;;;;4.20;2.90;;;;;;;3.44;100.00;99518.52;131996;1281;23414;-83
2023/04/03 11:05:53;;;;;;;5.40;3.00;;;;;;;3.47;100.00;99514.17;131728;1273;22536;-82
2023/04/03 11:08:56;;;;;;;4.20;2.10;;;;;;;3.52;100.00;99519.88;131952;1281;24760;-83
2023/04/03 11:11:59;;;;;;;5.40;3.30;;;;;;;3.61;100.00;99509.36;131872;1280;25496;-82
2023/04/03 11:15:02;;;;;;;5.30;3.30;;;;;;;3.81;100.00;99505.71;132103;1280;22560;-81
2023/04/03 11:18:05;;;;;;;6.20;4.00;;;;;;;3.88;100.00;99498.47;131864;1287;26375;-83
2023/04/03 11:21:08;;;;;;;6.80;4.30;;;;;;;3.94;100.00;99497.09;131793;1287;22667;-82
2023/04/03 11:24:11;;;;;;;3.40;3.10;;;;;;;3.95;100.00;99500.33;132035;1287;22660;-85
2023/04/03 11:27:16;;;;;;;4.00;2.90;;;;;;;3.99;100.00;99497.27;132659;1281;22531;-83
2023/04/03 11:30:19;;;;;;;10.40;5.40;;;;;;;4.07;96.47;99503.62;133304;1288;23886;-80
2023/04/03 11:33:23;;;;;;;9.20;4.90;;;;;;;4.07;82.66;99502.51;132453;1287;22540;-83
2023/04/03 11:36:26;;;;;;;2.70;2.10;;;;;;;4.16;73.35;99500.75;132357;1288;25346;-81
2023/04/03 11:39:29;;;;;;;2.40;1.80;;;;;;;4.18;60.98;99497.48;131750;1270;22704;-80
2023/04/03 11:42:32;;;;;;;3.10;2.20;;;;;;;4.11;59.63;99496.82;131730;1285;22671;-80
2023/04/03 11:45:35;;;;;;;5.00;2.20;;;;;;;4.10;60.37;99498.27;131662;1288;22544;-81
2023/04/03 11:48:38;;;;;;;3.10;2.00;;;;;;;4.16;62.03;99500.63;131906;1280;22540;-81
2023/04/03 11:51:41;;;;;;;3.00;2.40;;;;;;;4.18;61.02;99495.12;131672;1288;25371;-82
2023/04/03 11:54:44;;;;;;;2.90;2.50;;;;;;;4.30;60.87;99497.63;131627;1288;24287;-81
2023/04/03 11:57:47;;;;;;;4.40;3.60;;;;;;;4.43;59.78;99500.75;131744;1280;24253;-83
2023/04/03 12:00:50;;;;;;;2.80;2.40;;;;;;;4.59;60.56;99497.03;131723;1281;22628;-81
2023/04/03 12:03:54;;;;;;;5.40;2.10;;;;;;;4.65;55.81;99496.23;131727;1287;22700;-79
2023/04/03 12:06:57;;;;;;;3.70;2.10;;;;;;;4.60;53.96;99495.25;131749;1277;22650;-80
2023/04/03 12:10:00;;;;;;;3.70;2.40;;;;;;;4.64;54.09;99494.79;131760;1286;22535;-81
2023/04/03 12:13:04;;;;;;;4.10;2.50;;;;;;;4.69;54.90;99490.88;131733;1287;24611;-81
2023/04/03 12:16:07;;;;;;;3.80;2.30;;;;;;;4.73;55.94;99487.74;131844;1286;24386;-81
2023/04/03 12:19:10;;;;;;;3.90;2.30;;;;;;;4.81;55.39;99490.38;131761;1265;24252;-81
2023/04/03 12:22:13;;;;;;;2.30;2.10;;;;;;;4.79;52.13;99491.43;131781;1281;22630;-80
2023/04/03 12:25:16;;;;;;;3.70;1.90;;;;;;;4.70;54.38;99483.92;131840;1280;22562;-81
2023/04/03 12:28:19;;;;;;;2.40;2.20;;;;;;;4.63;53.67;99482.75;131807;1287;22545;-81
2023/04/03 12:31:22;;;;;;;3.30;2.80;;;;;;;4.58;54.27;99480.70;131784;1288;22589;-82
2023/04/03 12:34:25;;;;;;;3.50;2.40;;;;;;;4.60;55.13;99481.95;131868;1281;25346;-81
2023/04/03 12:37:28;;;;;;;2.60;1.70;;;;;;;4.67;54.29;99484.46;131897;1287;22773;-81
2023/04/03 12:40:31;;;;;;;1.80;1.60;;;;;;;4.65;53.32;99481.84;131888;1288;22499;-82
2023/04/03 12:43:34;;;;;;;2.90;2.60;;;;;;;4.75;53.98;99483.98;132163;1288;25415;-83
2023/04/03 12:46:38;;;;;;;3.70;2.70;;;;;;;4.90;53.04;99481.92;132239;1268;22667;-81
2023/04/03 12:49:41;;;;;;;4.30;3.10;;;;;;;4.93;51.03;99491.52;132175;1281;22498;-83
2023/04/03 12:52:44;;;;;;;2.50;1.80;;;;;;;4.96;51.58;99490.20;132056;1288;22547;-82
2023/04/03 12:55:47;;;;;;;2.70;2.50;;;;;;;5.01;52.63;99485.98;131898;1280;24936;-83
2023/04/03 12:58:50;;;;;;;2.30;2.10;;;;;;;5.02;52.63;99484.04;132011;1265;22543;-83
2023/04/03 13:01:53;;;;;;;2.60;1.60;;;;;;;5.05;53.55;99490.57;131936;1287;23446;-82
2023/04/03 13:04:57;;;;;;;2.30;2.10;;;;;;;4.96;51.69;99496.80;131981;1288;22539;-82
2023/04/03 13:08:00;;;;;;;6.30;2.90;;;;;;;4.74;51.04;99497.58;131999;1288;25438;-82
2023/04/03 13:11:03;;;;;;;4.20;2.80;;;;;;;4.56;51.47;99493.65;131926;1280;22555;-83
2023/04/03 13:14:05;;;;;;;3.70;2.30;;;;;;;4.43;52.20;99491.89;131794;1280;22540;-82
2023/04/03 13:17:08;;;;;;;4.10;2.60;;;;;;;4.31;51.43;99488.16;131748;1288;24227;-82
2023/04/03 13:20:11;;;;;;;5.00;2.80;;;;;;;4.18;51.11;99492.66;131808;1281;22553;-82
2023/04/03 13:23:14;;;;;;;4.70;2.40;;;;;;;4.13;51.54;99495.34;131761;1287;22562;-83
2023/04/03 13:26:17;;;;;;;3.00;2.40;;;;;;;4.04;50.97;99494.13;132112;1280;22655;-83
2023/04/03 13:29:20;;;;;;;3.70;2.40;;;;;;;3.97;51.73;99489.67;132149;1288;25414;-82
2023/04/03 13:32:23;;;;;;;4.40;2.40;;;;;;;3.92;52.07;99494.20;132475;1288;24322;-81
2023/04/03 13:35:26;;;;;;;2.00;1.80;;;;;;;3.90;51.69;99490.56;132112;1288;22553;-83
2023/04/03 13:38:31;;;;;;;3.60;2.20;;;;;;;3.86;51.85;99489.13;132088;1287;23963;-81
2023/04/03 13:41:34;;;;;;;2.10;2.00;;;;;;;3.83;51.94;99490.91;132374;1288;24183;-84
2023/04/03 13:44:39;;;;;;;2.70;1.90;;;;;;;3.89;51.62;99494.25;132087;1287;24293;-83
2023/04/03 13:47:42;;;;;;;2.10;1.90;;;;;;;4.00;52.87;99483.22;132075;1288;22546;-82
2023/04/03 13:50:45;;;;;;;4.20;2.10;;;;;;;4.04;52.33;99489.11;131928;1288;24223;-81
2023/04/03 13:53:47;;;;;;;3.80;1.80;;;;;;;4.03;52.20;99481.59;131848;1280;25886;-81
2023/04/03 13:56:56;;;;;;;3.30;1.70;;;;;;;3.95;50.50;99491.70;131857;1280;22612;-82
2023/04/03 13:59:59;;;;;;;2.20;1.70;;;;;;;3.90;50.44;99483.76;131786;1265;22751;-80
2023/04/03 14:03:02;;;;;;;4.80;2.80;;;;;;;3.90;49.81;99487.22;132012;1288;24246;-81
2023/04/03 14:06:05;;;;;;;3.10;2.20;;;;;;;3.95;50.02;99485.61;132116;1287;23947;-83
2023/04/03 14:09:08;;;;;;;4.10;2.00;;;;;;;3.99;49.07;99498.11;131959;1288;24750;-82